Time;durP1;ratioP1;P1;durP2;ratioP2;P2;SDS_P1;SDS_P2;PMS_P1;PMS_P2;Temp;Humidity;BMP_temperature;BMP_pressure;BME280_temperature;BME280_humidity;BME280_pressure;Samples;Min_cycle;Max_cycle;Signal;HPM_P1;HPM_P2
2023/07/07 00:00:37;;;;;;;15.57;14.27;;;12.90;81.00;;;;;;5076582;28;20390;-76
2023/07/07 00:03:02;;;;;;;15.00;14.00;;;12.90;80.70;;;;;;5052239;28;20169;-76
2023/07/07 00:05:28;;;;;;;15.90;14.60;;;13.00;80.30;;;;;;5073972;28;20037;-76
2023/07/07 00:07:54;;;;;;;15.90;14.75;;;12.90;80.30;;;;;;5075568;28;20376;-77
2023/07/07 00:10:20;;;;;;;15.95;14.75;;;12.90;80.30;;;;;;5070944;28;20028;-76
2023/07/07 00:12:46;;;;;;;15.55;14.32;;;12.90;80.10;;;;;;5073422;28;20056;-77
2023/07/07 00:15:12;;;;;;;15.85;14.65;;;12.80;82.10;;;;;;5072789;28;20479;-77
2023/07/07 00:17:41;;;;;;;15.70;14.50;;;12.70;82.00;;;;;;5070091;28;20040;-77
2023/07/07 00:20:09;;;;;;;15.55;14.40;;;12.70;82.10;;;;;;5071288;28;20530;-76
2023/07/07 00:22:35;;;;;;;16.48;14.98;;;12.70;82.20;;;;;;5082751;28;20054;-76
2023/07/07 00:25:02;;;;;;;15.65;14.55;;;12.60;81.80;;;;;;5074672;28;20554;-76
2023/07/07 00:27:28;;;;;;;15.70;14.20;;;12.60;81.40;;;;;;5073130;28;20496;-77
2023/07/07 00:29:54;;;;;;;16.23;14.93;;;12.60;80.90;;;;;;5072140;28;20104;-76
2023/07/07 00:32:19;;;;;;;15.88;14.68;;;12.60;80.80;;;;;;5077586;28;20056;-76
2023/07/07 00:34:45;;;;;;;15.63;14.32;;;12.50;81.70;;;;;;5073604;28;20071;-76
2023/07/07 00:37:10;;;;;;;14.52;13.52;;;12.60;82.50;;;;;;5070373;28;20115;-76
2023/07/07 00:39:36;;;;;;;14.63;13.43;;;12.50;82.50;;;;;;5057659;28;20057;-76
2023/07/07 00:42:02;;;;;;;15.68;14.48;;;12.50;81.90;;;;;;5057844;28;20033;-77
2023/07/07 00:44:50;;;;;;;15.27;14.23;;;12.60;81.60;;;;;;5054965;28;20047;-76
2023/07/07 00:47:17;;;;;;;15.77;14.38;;;12.50;81.00;;;;;;5074149;28;20067;-76
2023/07/07 00:49:42;;;;;;;15.23;14.02;;;12.50;80.80;;;;;;5071183;28;20112;-76
2023/07/07 00:52:08;;;;;;;14.93;13.82;;;12.50;80.90;;;;;;5077064;28;20115;-76
2023/07/07 00:54:35;;;;;;;14.90;13.80;;;12.50;80.80;;;;;;5054321;28;20427;-76
2023/07/07 00:57:03;;;;;;;15.23;13.82;;;12.50;81.90;;;;;;5076563;28;20028;-77
2023/07/07 00:59:34;;;;;;;14.02;13.02;;;12.50;81.40;;;;;;5076148;28;20119;-76
2023/07/07 01:02:04;;;;;;;15.65;14.25;;;12.30;82.80;;;;;;5071961;28;20068;-76
2023/07/07 01:04:30;;;;;;;14.73;13.52;;;12.20;82.60;;;;;;5075304;28;20041;-77
2023/07/07 01:07:03;;;;;;;14.50;13.30;;;12.00;83.30;;;;;;5089367;28;20040;-76
2023/07/07 01:09:29;;;;;;;14.10;12.90;;;12.00;84.10;;;;;;5073429;28;20028;-75
2023/07/07 01:11:55;;;;;;;14.95;13.80;;;12.00;84.50;;;;;;5075974;28;20538;-75
2023/07/07 01:14:25;;;;;;;14.13;13.07;;;12.00;84.20;;;;;;5073173;28;20093;-75
2023/07/07 01:17:06;;;;;;;15.65;14.25;;;12.10;84.90;;;;;;5076511;28;20492;-76
2023/07/07 01:19:53;;;;;;;15.85;14.52;;;12.00;84.90;;;;;;5074324;28;20558;-75
2023/07/07 01:22:25;;;;;;;14.50;13.35;;;12.00;84.90;;;;;;5084704;28;20143;-75
2023/07/07 01:25:19;;;;;;;14.73;13.50;;;11.90;84.90;;;;;;5075790;28;20473;-76
2023/07/07 01:27:55;;;;;;;15.00;13.50;;;12.00;84.40;;;;;;5071804;28;20032;-75
2023/07/07 01:30:41;;;;;;;14.90;13.70;;;12.00;85.00;;;;;;5074365;28;20036;-75
2023/07/07 01:33:11;;;;;;;14.38;13.18;;;12.00;85.30;;;;;;5075514;28;20038;-75
2023/07/07 01:35:38;;;;;;;14.38;13.32;;;11.90;85.60;;;;;;5074894;28;20029;-75
2023/07/07 01:38:05;;;;;;;15.27;13.98;;;11.90;84.80;;;;;;5073331;28;20037;-75
2023/07/07 01:40:45;;;;;;;15.25;13.85;;;11.90;85.40;;;;;;5074021;28;20032;-76
2023/07/07 01:43:24;;;;;;;14.60;13.43;;;11.90;86.10;;;;;;5067655;28;20175;-75
2023/07/07 01:46:01;;;;;;;14.65;13.40;;;11.80;86.70;;;;;;5073371;28;20029;-74
2023/07/07 01:48:54;;;;;;;15.05;13.85;;;11.80;86.70;;;;;;5069807;28;20075;-76
2023/07/07 01:51:27;;;;;;;14.70;13.52;;;11.80;86.60;;;;;;5068609;28;20033;-75
2023/07/07 01:53:54;;;;;;;15.30;13.95;;;11.80;86.80;;;;;;5069203;28;20036;-76
2023/07/07 01:56:25;;;;;;;15.10;13.95;;;11.80;87.70;;;;;;5080232;28;20078;-75
2023/07/07 01:58:51;;;;;;;14.25;13.25;;;11.80;87.50;;;;;;5073769;28;20035;-76
2023/07/07 02:01:18;;;;;;;15.73;14.32;;;11.80;87.70;;;;;;5074186;28;20032;-75
2023/07/07 02:03:44;;;;;;;15.23;13.93;;;11.80;88.60;;;;;;5075139;28;20035;-75
2023/07/07 02:06:10;;;;;;;15.60;14.30;;;11.80;89.00;;;;;;5072513;28;20037;-76
2023/07/07 02:08:35;;;;;;;15.07;13.82;;;11.80;88.80;;;;;;5076613;28;20032;-74
2023/07/07 02:11:01;;;;;;;14.52;13.43;;;11.70;88.90;;;;;;5073414;28;20783;-75
2023/07/07 02:13:27;;;;;;;14.90;13.70;;;11.70;88.50;;;;;;5072473;28;20406;-75
2023/07/07 02:15:52;;;;;;;14.85;13.70;;;11.60;88.90;;;;;;5078624;28;20045;-75
2023/07/07 02:18:19;;;;;;;15.05;13.65;;;11.50;88.90;;;;;;5071704;28;20028;-75
2023/07/07 02:20:44;;;;;;;14.55;13.57;;;11.50;88.60;;;;;;5070881;28;20033;-76
2023/07/07 02:23:10;;;;;;;15.23;14.02;;;11.50;88.50;;;;;;5074030;28;20059;-75
2023/07/07 02:25:36;;;;;;;15.20;13.77;;;11.50;88.50;;;;;;5072098;28;20041;-76
2023/07/07 02:28:01;;;;;;;15.73;14.32;;;11.50;88.20;;;;;;5078462;28;20067;-75
2023/07/07 02:30:27;;;;;;;15.82;14.50;;;11.50;88.50;;;;;;5077459;28;20029;-76
2023/07/07 02:32:53;;;;;;;14.98;13.80;;;11.50;89.30;;;;;;5074678;28;20035;-76
2023/07/07 02:35:18;;;;;;;15.60;14.02;;;11.50;88.70;;;;;;5080262;28;20028;-75
2023/07/07 02:37:44;;;;;;;14.38;13.38;;;11.40;88.90;;;;;;5077372;28;20052;-76
2023/07/07 02:40:10;;;;;;;15.45;13.95;;;11.30;89.80;;;;;;5094862;28;20102;-76
2023/07/07 02:42:36;;;;;;;15.70;14.20;;;11.30;89.30;;;;;;5078218;28;20528;-75
2023/07/07 02:45:02;;;;;;;15.73;13.82;;;11.30;89.80;;;;;;5073847;28;20036;-76
2023/07/07 02:47:29;;;;;;;15.57;13.98;;;11.30;89.40;;;;;;5077673;28;20043;-75
2023/07/07 02:49:54;;;;;;;15.98;14.60;;;11.20;89.80;;;;;;5059433;28;20064;-74
2023/07/07 02:52:20;;;;;;;18.83;17.08;;;11.20;90.10;;;;;;5076855;28;20130;-75
2023/07/07 02:54:46;;;;;;;16.55;15.25;;;11.10;90.60;;;;;;5080459;28;20028;-76
2023/07/07 02:57:11;;;;;;;17.85;16.25;;;11.10;91.00;;;;;;5075337;28;20036;-74
2023/07/07 02:59:37;;;;;;;18.10;15.75;;;11.20;91.20;;;;;;5073916;28;20141;-75
2023/07/07 03:02:03;;;;;;;17.60;16.08;;;11.20;91.50;;;;;;5078118;28;20044;-74
2023/07/07 03:04:29;;;;;;;18.17;16.65;;;11.20;91.70;;;;;;5074674;28;20040;-76
2023/07/07 03:06:55;;;;;;;16.60;15.35;;;11.20;91.60;;;;;;5079186;28;20472;-76
2023/07/07 03:09:20;;;;;;;17.90;16.40;;;11.10;91.60;;;;;;5075918;28;20405;-75
2023/07/07 03:11:46;;;;;;;17.60;15.88;;;11.10;91.90;;;;;;5086073;28;20521;-75
2023/07/07 03:14:16;;;;;;;16.42;15.30;;;11.10;91.70;;;;;;5075385;28;20499;-76
2023/07/07 03:16:46;;;;;;;17.02;15.68;;;11.10;91.50;;;;;;5073049;28;20055;-77
2023/07/07 03:19:12;;;;;;;17.42;15.95;;;11.10;92.10;;;;;;5088783;28;20519;-75
2023/07/07 03:21:38;;;;;;;18.08;16.48;;;11.10;92.10;;;;;;5075708;28;20484;-77
2023/07/07 03:24:04;;;;;;;17.52;16.13;;;11.10;92.20;;;;;;5072941;28;20056;-75
2023/07/07 03:26:30;;;;;;;15.93;14.73;;;11.10;92.20;;;;;;5076171;28;20402;-76
2023/07/07 03:28:56;;;;;;;17.50;15.88;;;11.20;92.40;;;;;;5073223;28;20115;-76
2023/07/07 03:31:25;;;;;;;17.52;16.00;;;11.10;92.30;;;;;;5054986;28;20401;-76
2023/07/07 03:34:02;;;;;;;17.80;16.35;;;11.10;92.00;;;;;;5078869;28;20023;-74
2023/07/07 03:36:30;;;;;;;17.80;16.40;;;11.00;92.30;;;;;;5071868;28;20089;-74
2023/07/07 03:38:56;;;;;;;16.77;15.38;;;10.90;91.90;;;;;;5074896;28;20043;-74
2023/07/07 03:41:27;;;;;;;17.70;16.17;;;11.00;91.80;;;;;;5076132;28;20032;-74
2023/07/07 03:43:54;;;;;;;;;;;10.70;91.50;;;;;;5079897;28;20016;-75
2023/07/07 03:46:22;;;;;;;15.43;14.02;;;10.70;91.30;;;;;;5076542;28;19966;-75
2023/07/07 03:48:49;;;;;;;16.13;14.52;;;10.50;91.80;;;;;;5077436;28;20072;-75
2023/07/07 03:51:17;;;;;;;16.48;15.20;;;10.60;92.00;;;;;;5073905;28;20024;-76
2023/07/07 03:53:44;;;;;;;16.98;15.15;;;10.60;92.00;;;;;;5075545;28;20024;-75
2023/07/07 03:56:10;;;;;;;17.58;15.98;;;10.60;92.20;;;;;;5073439;28;20360;-76
2023/07/07 03:58:36;;;;;;;17.45;15.95;;;10.70;92.10;;;;;;5078649;28;20083;-75
2023/07/07 04:01:07;;;;;;;17.58;15.98;;;10.80;92.30;;;;;;5078725;28;20475;-76
2023/07/07 04:03:34;;;;;;;17.20;16.00;;;10.90;91.90;;;;;;5072757;28;20090;-75
2023/07/07 04:06:01;;;;;;;17.08;15.80;;;11.00;92.10;;;;;;5077232;28;20467;-75
2023/07/07 04:08:27;;;;;;;17.23;15.90;;;11.10;92.00;;;;;;5075858;28;20154;-75
2023/07/07 04:11:02;;;;;;;18.48;17.08;;;11.30;92.00;;;;;;5072614;28;20025;-74
2023/07/07 04:13:29;;;;;;;18.10;16.60;;;11.30;91.70;;;;;;5072978;28;20028;-71
2023/07/07 04:16:03;;;;;;;18.45;16.58;;;11.30;91.70;;;;;;5073398;28;20032;-72
2023/07/07 04:18:31;;;;;;;17.70;16.20;;;11.40;92.00;;;;;;5075887;28;20032;-72
2023/07/07 04:21:01;;;;;;;17.95;16.52;;;11.40;91.70;;;;;;5081348;28;20147;-72
2023/07/07 04:23:27;;;;;;;18.33;16.85;;;11.60;91.50;;;;;;5077676;28;20059;-71
2023/07/07 04:25:54;;;;;;;23.80;17.75;;;11.60;91.20;;;;;;5078561;28;20445;-73
2023/07/07 04:28:20;;;;;;;17.92;16.60;;;11.70;91.10;;;;;;5072667;28;20060;-73
2023/07/07 04:30:55;;;;;;;18.27;16.67;;;11.80;91.20;;;;;;5071769;28;20102;-73
2023/07/07 04:33:22;;;;;;;18.02;16.73;;;12.00;91.10;;;;;;5073971;28;20171;-72
2023/07/07 04:35:56;;;;;;;18.23;16.75;;;12.00;91.10;;;;;;5077350;28;20033;-72
2023/07/07 04:38:30;;;;;;;19.02;17.63;;;12.10;90.80;;;;;;5075063;28;20043;-72
2023/07/07 04:41:06;;;;;;;19.20;17.50;;;12.20;90.80;;;;;;5066849;28;20078;-74
2023/07/07 04:43:33;;;;;;;18.85;17.45;;;12.30;90.70;;;;;;5076709;28;20036;-72
2023/07/07 04:46:00;;;;;;;18.70;17.10;;;12.40;90.50;;;;;;5075290;28;20042;-71
2023/07/07 04:48:26;;;;;;;19.35;17.85;;;12.50;90.40;;;;;;5055446;28;20371;-72
2023/07/07 04:50:57;;;;;;;20.10;18.20;;;12.60;90.60;;;;;;5078742;28;20035;-73
2023/07/07 04:53:22;;;;;;;19.20;17.60;;;12.70;90.90;;;;;;5073226;28;20025;-71
2023/07/07 04:55:48;;;;;;;19.65;18.05;;;12.80;90.90;;;;;;5072708;28;20077;-71
2023/07/07 04:58:14;;;;;;;18.65;17.20;;;12.90;90.80;;;;;;5091653;28;20032;-74
2023/07/07 05:00:39;;;;;;;19.17;17.65;;;13.10;90.30;;;;;;5073408;28;20036;-73
2023/07/07 05:03:05;;;;;;;18.40;16.92;;;13.20;90.30;;;;;;5080466;28;20139;-73
2023/07/07 05:05:34;;;;;;;19.67;17.85;;;13.40;90.00;;;;;;5075970;28;20133;-73
2023/07/07 05:08:00;;;;;;;17.90;16.27;;;13.50;90.10;;;;;;5075646;28;20097;-73
2023/07/07 05:10:25;;;;;;;19.45;17.90;;;13.70;89.20;;;;;;5076193;28;20784;-73
2023/07/07 05:12:51;;;;;;;18.63;17.13;;;13.70;89.60;;;;;;5071088;28;20494;-73
2023/07/07 05:15:17;;;;;;;18.17;16.65;;;13.80;89.20;;;;;;5078121;28;20031;-73
2023/07/07 05:17:42;;;;;;;19.92;18.00;;;13.80;88.40;;;;;;5079259;28;20050;-74
2023/07/07 05:20:08;;;;;;;19.33;17.85;;;13.80;89.70;;;;;;5087329;28;20086;-73
2023/07/07 05:22:34;;;;;;;17.63;16.05;;;13.80;89.70;;;;;;5089461;28;20430;-73
2023/07/07 05:24:59;;;;;;;19.20;17.60;;;13.90;89.30;;;;;;5089672;28;20024;-74
2023/07/07 05:27:26;;;;;;;18.23;16.73;;;14.10;88.20;;;;;;5088322;28;20483;-72
2023/07/07 05:29:52;;;;;;;19.05;17.65;;;14.10;90.00;;;;;;5075391;28;20032;-72
2023/07/07 05:32:17;;;;;;;17.77;16.38;;;14.40;87.70;;;;;;5069689;28;20032;-72
2023/07/07 05:34:43;;;;;;;18.48;17.13;;;14.50;86.60;;;;;;5077482;28;20477;-73
2023/07/07 05:37:09;;;;;;;17.92;16.30;;;14.60;85.70;;;;;;5095236;28;20036;-72
2023/07/07 05:39:34;;;;;;;17.67;16.10;;;14.60;83.30;;;;;;5071822;28;20111;-73
2023/07/07 05:42:00;;;;;;;17.95;16.45;;;14.70;82.40;;;;;;5081496;28;20067;-72
2023/07/07 05:44:26;;;;;;;17.42;15.75;;;14.80;81.70;;;;;;5089519;28;20051;-72
2023/07/07 05:46:51;;;;;;;18.35;16.75;;;14.90;80.20;;;;;;5075105;28;20036;-72
2023/07/07 05:49:17;;;;;;;18.42;16.60;;;15.10;80.90;;;;;;5077138;28;20529;-71
2023/07/07 05:51:43;;;;;;;18.08;16.65;;;15.10;81.70;;;;;;5070646;28;20052;-72
2023/07/07 05:54:09;;;;;;;17.90;16.42;;;15.20;81.20;;;;;;5078348;28;20032;-71
2023/07/07 05:56:35;;;;;;;19.38;17.05;;;15.30;80.80;;;;;;5073055;28;20050;-71
2023/07/07 05:59:02;;;;;;;17.08;15.55;;;15.40;80.80;;;;;;5067662;28;20028;-71
2023/07/07 06:01:28;;;;;;;17.58;15.88;;;15.60;78.90;;;;;;5078607;28;20036;-71
2023/07/07 06:03:54;;;;;;;17.90;16.13;;;15.60;78.10;;;;;;5076657;28;20434;-71
2023/07/07 06:06:19;;;;;;;20.02;17.67;;;15.80;78.60;;;;;;5077956;28;20071;-72
2023/07/07 06:08:45;;;;;;;19.27;17.55;;;15.80;78.80;;;;;;5083794;28;20032;-72
2023/07/07 06:11:11;;;;;;;17.42;16.23;;;15.90;78.60;;;;;;5060922;28;20050;-72
2023/07/07 06:13:37;;;;;;;20.17;16.83;;;16.00;78.90;;;;;;5082543;28;20494;-73
2023/07/07 06:16:04;;;;;;;17.95;16.45;;;16.10;77.80;;;;;;5078908;28;20032;-70
2023/07/07 06:18:30;;;;;;;19.58;17.88;;;16.20;77.80;;;;;;5090377;28;20040;-72
2023/07/07 06:21:00;;;;;;;20.77;19.17;;;16.30;78.30;;;;;;5080110;28;20036;-72
2023/07/07 06:23:26;;;;;;;;;;;16.40;74.30;;;;;;5077695;28;20084;-72
2023/07/07 06:25:52;;;;;;;20.05;18.42;;;16.40;74.90;;;;;;5078187;28;20002;-72
2023/07/07 06:28:19;;;;;;;19.65;17.77;;;16.60;73.90;;;;;;5095664;28;20127;-73
2023/07/07 06:30:48;;;;;;;20.70;19.00;;;16.60;73.10;;;;;;5090003;28;20028;-72
2023/07/07 06:33:14;;;;;;;19.30;17.50;;;16.80;73.20;;;;;;5078572;28;20035;-72
2023/07/07 06:35:42;;;;;;;20.63;18.48;;;16.80;71.40;;;;;;5076756;28;20032;-72
2023/07/07 06:38:08;;;;;;;19.10;17.45;;;16.90;72.50;;;;;;5072545;28;20036;-72
2023/07/07 06:40:34;;;;;;;19.63;17.98;;;17.00;72.10;;;;;;5091712;28;20577;-73
2023/07/07 06:43:03;;;;;;;18.50;16.88;;;17.20;71.10;;;;;;5074217;28;20456;-72
2023/07/07 06:45:31;;;;;;;18.52;16.92;;;17.30;69.80;;;;;;5076253;28;20119;-72
2023/07/07 06:47:57;;;;;;;20.88;18.83;;;17.40;70.10;;;;;;5074100;28;20055;-72
2023/07/07 06:50:35;;;;;;;19.02;16.95;;;17.60;71.90;;;;;;5073154;28;20060;-72
2023/07/07 06:53:00;;;;;;;17.83;16.05;;;17.80;69.40;;;;;;5077360;28;20393;-72
2023/07/07 06:55:26;;;;;;;17.45;16.02;;;17.90;69.20;;;;;;5075553;28;20024;-72
2023/07/07 06:57:52;;;;;;;17.15;15.65;;;18.00;69.90;;;;;;5057016;28;20490;-72
2023/07/07 07:00:18;;;;;;;17.83;16.38;;;18.20;69.90;;;;;;5059511;28;20190;-71
2023/07/07 07:02:44;;;;;;;18.77;17.08;;;18.40;70.30;;;;;;5074299;28;20428;-72
2023/07/07 07:05:11;;;;;;;21.52;20.02;;;18.50;67.50;;;;;;5075643;28;20136;-73
2023/07/07 07:07:36;;;;;;;20.00;18.50;;;18.50;66.20;;;;;;5075905;28;20044;-72
2023/07/07 07:10:03;;;;;;;20.30;18.85;;;18.50;65.50;;;;;;5075142;28;20032;-72
2023/07/07 07:12:30;;;;;;;21.08;19.42;;;18.50;65.50;;;;;;5059488;28;20032;-72
2023/07/07 07:14:56;;;;;;;20.08;18.30;;;18.70;65.60;;;;;;5075193;28;20024;-71
2023/07/07 07:17:22;;;;;;;21.35;19.85;;;18.80;65.10;;;;;;5075512;28;20028;-71
2023/07/07 07:19:48;;;;;;;20.15;18.65;;;19.00;64.50;;;;;;5072081;28;20040;-72
2023/07/07 07:22:14;;;;;;;20.92;19.40;;;19.20;66.40;;;;;;5073352;28;20392;-72
2023/07/07 07:24:42;;;;;;;21.27;19.52;;;19.40;62.90;;;;;;5080180;28;20179;-72
2023/07/07 07:27:08;;;;;;;20.63;19.13;;;19.50;63.40;;;;;;5073907;28;20033;-69
2023/07/07 07:29:34;;;;;;;20.95;19.13;;;19.60;63.90;;;;;;5072391;28;20494;-70
2023/07/07 07:32:00;;;;;;;20.17;18.60;;;19.60;64.30;;;;;;5077000;28;20136;-72
2023/07/07 07:34:28;;;;;;;21.58;19.98;;;19.90;64.60;;;;;;5054064;28;20743;-72
2023/07/07 07:36:56;;;;;;;21.45;20.25;;;20.10;63.60;;;;;;5076583;28;20036;-72
2023/07/07 07:39:22;;;;;;;23.38;21.77;;;20.00;60.10;;;;;;5077194;28;20037;-72
2023/07/07 07:41:51;;;;;;;25.67;24.08;;;20.30;62.50;;;;;;5071195;28;20064;-72
2023/07/07 07:44:18;;;;;;;26.70;25.23;;;20.50;61.90;;;;;;5072709;28;20051;-72
2023/07/07 07:46:46;;;;;;;18.90;17.80;;;20.20;61.70;;;;;;5077367;28;20146;-72
2023/07/07 07:49:12;;;;;;;25.80;23.88;;;20.40;58.70;;;;;;5074753;28;20077;-72
2023/07/07 07:51:39;;;;;;;22.73;21.23;;;20.70;61.10;;;;;;5078241;28;20035;-71
2023/07/07 07:54:10;;;;;;;28.42;26.75;;;20.70;59.40;;;;;;5073952;28;20168;-71
2023/07/07 07:56:37;;;;;;;20.27;18.67;;;20.70;60.50;;;;;;5078382;28;20044;-72
2023/07/07 07:59:03;;;;;;;22.17;20.80;;;20.90;58.80;;;;;;5072825;28;20429;-72
2023/07/07 08:01:29;;;;;;;23.83;22.33;;;21.00;59.40;;;;;;5075538;28;20089;-71
2023/07/07 08:03:55;;;;;;;25.58;23.88;;;21.10;59.60;;;;;;5076723;28;20024;-72
2023/07/07 08:06:21;;;;;;;25.75;23.83;;;21.00;60.10;;;;;;5072528;28;20043;-71
2023/07/07 08:08:47;;;;;;;32.13;30.13;;;21.10;57.10;;;;;;5075431;28;20032;-72
2023/07/07 08:11:19;;;;;;;38.22;36.28;;;21.20;55.50;;;;;;5078188;28;20398;-72
2023/07/07 08:13:45;;;;;;;27.35;25.63;;;21.10;55.60;;;;;;5073422;28;20059;-72
2023/07/07 08:16:12;;;;;;;30.77;28.85;;;21.30;57.90;;;;;;5077944;28;20524;-71
2023/07/07 08:18:41;;;;;;;29.63;27.70;;;21.10;56.60;;;;;;5076298;28;20379;-71
2023/07/07 08:21:07;;;;;;;29.83;28.10;;;21.60;58.20;;;;;;5069616;28;20032;-72
2023/07/07 08:23:32;;;;;;;34.17;32.50;;;21.80;58.10;;;;;;5080314;28;20056;-72
2023/07/07 08:25:59;;;;;;;28.00;26.20;;;21.90;55.30;;;;;;5072341;28;20376;-71
2023/07/07 08:28:24;;;;;;;30.85;28.95;;;22.30;57.10;;;;;;5074054;28;20039;-72
2023/07/07 08:30:50;;;;;;;29.25;27.52;;;22.50;54.00;;;;;;5090825;28;20032;-73
2023/07/07 08:33:16;;;;;;;82.15;78.55;;;22.60;55.50;;;;;;5070707;28;20041;-73
2023/07/07 08:35:42;;;;;;;61.03;58.35;;;22.90;52.00;;;;;;5080918;28;20064;-72
2023/07/07 08:38:08;;;;;;;36.47;34.30;;;22.60;53.60;;;;;;5073119;28;20047;-72
2023/07/07 08:40:45;;;;;;;75.43;71.97;;;23.00;54.20;;;;;;5072872;28;20037;-72
2023/07/07 08:43:11;;;;;;;98.10;94.30;;;23.20;53.00;;;;;;5077283;28;20139;-72
2023/07/07 08:45:38;;;;;;;69.40;66.35;;;23.00;51.80;;;;;;5073064;28;20040;-72
2023/07/07 08:48:31;;;;;;;57.58;54.67;;;23.30;53.30;;;;;;5077675;28;20032;-72
2023/07/07 08:51:01;;;;;;;93.55;89.68;;;23.60;54.60;;;;;;5074377;28;20024;-72
2023/07/07 08:53:56;;;;;;;92.90;89.10;;;23.80;53.60;;;;;;5073620;28;20032;-72
2023/07/07 08:56:58;;;;;;;94.88;90.93;;;24.00;53.80;;;;;;5077727;28;20036;-72
2023/07/07 08:59:41;;;;;;;71.28;67.97;;;24.40;52.50;;;;;;5073696;28;20028;-72
2023/07/07 09:02:14;;;;;;;129.55;124.15;;;24.30;49.20;;;;;;5073497;28;20124;-72
2023/07/07 09:05:03;;;;;;;161.65;155.07;;;24.30;51.30;;;;;;5070622;28;20039;-72
2023/07/07 09:07:58;;;;;;;93.93;89.68;;;24.60;48.60;;;;;;5067624;28;20102;-72
2023/07/07 09:10:35;;;;;;;111.47;106.90;;;24.60;47.20;;;;;;5072246;28;20059;-72
2023/07/07 09:13:23;;;;;;;89.68;85.95;;;24.90;49.20;;;;;;5071560;28;20414;-73
2023/07/07 09:16:17;;;;;;;90.45;85.68;;;25.40;47.30;;;;;;5068498;28;20028;-72
2023/07/07 09:19:03;;;;;;;169.55;163.07;;;25.50;48.00;;;;;;5076146;28;20032;-72
2023/07/07 09:21:32;;;;;;;166.77;160.32;;;25.30;43.80;;;;;;5072062;28;20058;-72
2023/07/07 09:24:04;;;;;;;312.15;300.20;;;25.30;46.70;;;;;;5071777;28;20094;-73
2023/07/07 09:26:32;;;;;;;240.68;231.50;;;25.30;41.70;;;;;;5072177;28;20043;-73
2023/07/07 09:29:02;;;;;;;217.55;209.13;;;25.70;43.70;;;;;;5074219;28;20035;-72
2023/07/07 09:31:36;;;;;;;362.88;348.35;;;26.20;44.10;;;;;;5070952;28;20300;-72
2023/07/07 09:34:02;;;;;;;493.58;469.85;;;26.30;42.00;;;;;;5077126;28;20047;-72
2023/07/07 09:36:38;;;;;;;1999.90;999.90;;;26.40;40.40;;;;;;5073357;28;20036;-72
2023/07/07 09:39:25;;;;;;;1999.90;999.90;;;26.50;36.00;;;;;;5079231;28;20063;-72
2023/07/07 09:42:12;;;;;;;296.55;281.08;;;26.60;36.40;;;;;;5079721;28;20032;-72
2023/07/07 09:45:05;;;;;;;1999.90;999.90;;;27.40;37.70;;;;;;5075417;28;20052;-73
2023/07/07 09:47:55;;;;;;;1999.90;999.90;;;27.60;34.40;;;;;;5077898;28;20567;-72
2023/07/07 09:50:25;;;;;;;1999.90;999.90;;;27.50;34.20;;;;;;5075458;28;20040;-72
2023/07/07 09:53:00;;;;;;;1999.90;999.90;;;27.20;30.40;;;;;;5082219;28;20028;-72
2023/07/07 09:55:29;;;;;;;1999.90;999.90;;;27.20;29.80;;;;;;5078438;28;20028;-72
2023/07/07 09:58:20;;;;;;;1999.90;999.90;;;27.30;32.50;;;;;;5076822;28;20016;-72
2023/07/07 10:00:50;;;;;;;1999.90;999.90;;;27.10;32.60;;;;;;5078324;28;20061;-72
2023/07/07 10:03:43;;;;;;;1999.90;999.90;;;27.00;31.00;;;;;;5058090;28;20039;-73
2023/07/07 10:06:31;;;;;;;1999.90;999.90;;;27.10;33.80;;;;;;5080899;28;20106;-72
2023/07/07 10:08:57;;;;;;;1999.90;999.90;;;27.50;35.20;;;;;;5075678;28;20041;-72
2023/07/07 10:11:30;;;;;;;1999.90;999.90;;;27.80;31.70;;;;;;5080929;28;20032;-72
2023/07/07 10:13:57;;;;;;;1999.90;999.90;;;28.00;31.50;;;;;;5077634;28;20059;-73
2023/07/07 10:16:32;;;;;;;1999.90;999.90;;;28.10;33.10;;;;;;5072824;28;20136;-72
2023/07/07 10:19:00;;;;;;;1999.90;999.90;;;28.40;30.90;;;;;;5077677;28;20028;-72
2023/07/07 10:21:26;;;;;;;1999.90;999.90;;;28.40;32.30;;;;;;5074889;28;20048;-73
2023/07/07 10:23:53;;;;;;;1999.90;999.90;;;28.50;30.00;;;;;;5081630;28;20055;-72
2023/07/07 10:26:19;;;;;;;1999.90;999.90;;;28.00;28.30;;;;;;5076883;28;20045;-72
2023/07/07 10:28:47;;;;;;;1999.90;999.90;;;28.20;29.00;;;;;;5059782;28;20040;-72
2023/07/07 10:31:14;;;;;;;1999.90;999.90;;;28.30;28.50;;;;;;5081567;28;20114;-73
2023/07/07 10:33:41;;;;;;;1999.90;999.90;;;28.70;29.00;;;;;;5074694;28;20035;-73
2023/07/07 10:36:25;;;;;;;1999.90;999.90;;;28.60;27.00;;;;;;5076460;28;20132;-73
2023/07/07 10:38:55;;;;;;;1999.90;999.90;;;28.60;26.30;;;;;;5073683;28;20035;-72
2023/07/07 10:41:21;;;;;;;1999.90;999.90;;;28.30;26.30;;;;;;5075443;28;20025;-72
2023/07/07 10:43:47;;;;;;;1999.90;999.90;;;28.30;27.70;;;;;;5078590;28;20040;-72
2023/07/07 10:46:13;;;;;;;1999.90;999.90;;;28.80;32.90;;;;;;5067002;28;20393;-72
2023/07/07 10:48:39;;;;;;;1999.90;999.90;;;28.90;33.10;;;;;;5076106;28;20063;-73
2023/07/07 10:51:14;;;;;;;1999.90;999.90;;;29.00;30.30;;;;;;5074437;28;20028;-72
2023/07/07 10:53:43;;;;;;;1999.90;999.90;;;29.20;27.90;;;;;;5072144;28;20147;-72
2023/07/07 10:56:20;;;;;;;1999.90;999.90;;;29.60;26.80;;;;;;5076662;28;20455;-72
2023/07/07 10:58:51;;;;;;;1999.90;999.90;;;29.90;28.40;;;;;;5076436;28;20027;-73
2023/07/07 11:01:23;;;;;;;1999.90;999.90;;;29.60;29.00;;;;;;5073397;28;20039;-72
2023/07/07 11:04:00;;;;;;;1999.90;999.90;;;29.40;28.60;;;;;;5078158;28;20058;-73
2023/07/07 11:06:37;;;;;;;1999.90;999.90;;;29.90;28.70;;;;;;5073387;28;20131;-73
2023/07/07 11:09:05;;;;;;;1999.90;999.90;;;30.10;24.10;;;;;;5075639;28;20443;-74
2023/07/07 11:11:48;;;;;;;1999.90;999.90;;;30.90;28.00;;;;;;5077574;28;20107;-74
2023/07/07 11:14:33;;;;;;;1999.90;999.90;;;31.50;25.00;;;;;;5075695;28;20040;-73
2023/07/07 11:17:17;;;;;;;1999.90;999.90;;;31.00;25.70;;;;;;5080172;28;20035;-73
2023/07/07 11:20:14;;;;;;;1999.90;999.90;;;31.00;27.10;;;;;;5074310;28;20033;-74
2023/07/07 11:22:57;;;;;;;1999.90;999.90;;;31.80;26.90;;;;;;5077429;28;20056;-73
2023/07/07 11:25:46;;;;;;;1999.90;999.90;;;33.10;22.70;;;;;;5073451;28;20036;-73
2023/07/07 11:28:33;;;;;;;1999.90;999.90;;;33.00;23.30;;;;;;5054754;28;20565;-74
2023/07/07 11:31:20;;;;;;;1999.90;999.90;;;33.00;22.60;;;;;;5078943;28;20062;-74
2023/07/07 11:33:58;;;;;;;1999.90;999.90;;;32.40;21.60;;;;;;5075567;28;20070;-73
2023/07/07 11:36:45;;;;;;;1999.90;999.90;;;32.00;23.60;;;;;;5078194;28;20028;-73
2023/07/07 11:39:31;;;;;;;1999.90;999.90;;;32.50;23.40;;;;;;5073133;28;20031;-74
2023/07/07 11:42:27;;;;;;;1999.90;999.90;;;32.90;23.40;;;;;;5071598;28;20089;-73
2023/07/07 11:45:12;;;;;;;1999.90;999.90;;;33.40;23.20;;;;;;5055844;28;20032;-73
2023/07/07 11:47:46;;;;;;;1999.90;999.90;;;32.80;22.90;;;;;;5072996;28;20028;-74
2023/07/07 11:50:27;;;;;;;1999.90;999.90;;;33.30;21.70;;;;;;5091625;28;20514;-73
2023/07/07 11:53:15;;;;;;;1999.90;999.90;;;33.90;18.90;;;;;;5069907;28;20024;-73
2023/07/07 11:55:53;;;;;;;1999.90;999.90;;;34.30;21.10;;;;;;5073599;28;20493;-74
2023/07/07 11:58:34;;;;;;;1999.90;999.90;;;34.00;20.40;;;;;;5072124;28;20465;-74
2023/07/07 12:01:05;;;;;;;1999.90;999.90;;;34.60;18.30;;;;;;5072582;28;20031;-74
2023/07/07 12:03:58;;;;;;;1999.90;999.90;;;34.20;19.70;;;;;;5078719;28;20029;-74
2023/07/07 12:06:52;;;;;;;1999.90;999.90;;;34.40;19.50;;;;;;5071502;28;20249;-73
2023/07/07 12:09:31;;;;;;;1999.90;999.90;;;34.80;17.60;;;;;;5068662;28;20121;-74
2023/07/07 12:12:08;;;;;;;1999.90;999.90;;;34.90;16.10;;;;;;5071876;28;20020;-74
2023/07/07 12:14:53;;;;;;;1999.90;999.90;;;34.90;14.80;;;;;;5072200;28;20028;-74
2023/07/07 12:17:36;;;;;;;1999.90;999.90;;;34.40;18.10;;;;;;5077284;28;20035;-74
2023/07/07 12:20:15;;;;;;;1999.90;999.90;;;36.40;15.40;;;;;;5075275;28;20032;-74
2023/07/07 12:22:41;;;;;;;;;;;35.30;16.00;;;;;;5076737;28;20036;-74
2023/07/07 12:25:13;;;;;;;1999.90;999.90;;;35.10;16.00;;;;;;5073478;28;19916;-74
2023/07/07 12:27:51;;;;;;;1999.90;999.90;;;35.60;15.80;;;;;;5078721;28;20251;-74
2023/07/07 12:30:39;;;;;;;1999.90;999.90;;;35.80;16.00;;;;;;5076888;28;20185;-74
2023/07/07 12:33:05;;;;;;;1999.90;999.90;;;36.20;15.20;;;;;;5075543;28;20293;-74
2023/07/07 12:35:56;;;;;;;1999.90;999.90;;;35.80;17.00;;;;;;5079452;28;20032;-74
2023/07/07 12:38:30;;;;;;;1999.90;999.90;;;35.20;17.10;;;;;;5071205;28;20042;-74